createdAt,value
2022-07-29T00:01:21.290Z,5.68
2022-07-29T00:03:49.954Z,5.30
2022-07-29T00:06:18.288Z,4.38
2022-07-29T00:08:46.544Z,3.83
2022-07-29T00:11:16.306Z,3.92
2022-07-29T00:13:50.553Z,4.10
2022-07-29T00:16:19.468Z,3.40
2022-07-29T00:18:47.863Z,4.05
2022-07-29T00:21:16.189Z,3.13
2022-07-29T00:23:44.460Z,3.22
2022-07-29T00:26:12.698Z,3.83
2022-07-29T00:28:42.360Z,3.58
2022-07-29T00:31:10.677Z,4.13
2022-07-29T00:33:39.024Z,3.85
2022-07-29T00:36:06.612Z,3.67
2022-07-29T00:38:34.931Z,3.50
2022-07-29T00:41:03.377Z,3.80
2022-07-29T00:43:31.642Z,3.53
2022-07-29T00:46:01.297Z,3.40
2022-07-29T00:48:29.623Z,3.10
2022-07-29T00:50:59.621Z,4.00
2022-07-29T00:53:28.585Z,3.97
2022-07-29T00:55:57.499Z,3.70
2022-07-29T00:58:26.041Z,4.00
2022-07-29T01:00:54.520Z,3.55
2022-07-29T01:03:24.356Z,3.75
2022-07-29T01:05:53.126Z,3.27
2022-07-29T01:08:22.416Z,3.78
2022-07-29T01:10:52.868Z,4.47
2022-07-29T01:13:22.192Z,3.90
2022-07-29T01:15:56.057Z,3.78
2022-07-29T01:18:34.187Z,3.70
2022-07-29T01:21:26.814Z,3.30
2022-07-29T01:24:09.866Z,3.65
2022-07-29T01:26:46.381Z,3.83
2022-07-29T01:29:20.737Z,3.50
2022-07-29T01:31:59.503Z,3.63
2022-07-29T01:34:37.465Z,3.70
2022-07-29T01:37:22.062Z,3.53
2022-07-29T01:39:53.155Z,3.83
2022-07-29T01:42:32.665Z,3.90
2022-07-29T01:45:08.204Z,3.80
2022-07-29T01:47:42.472Z,4.35
2022-07-29T01:50:16.890Z,3.80
2022-07-29T01:52:51.835Z,4.25
2022-07-29T01:55:22.333Z,3.83
2022-07-29T01:57:51.586Z,3.90
2022-07-29T02:00:22.390Z,4.10
2022-07-29T02:02:52.243Z,4.30
2022-07-29T02:05:22.592Z,4.40
2022-07-29T02:07:51.965Z,4.35
2022-07-29T02:10:25.851Z,4.50
2022-07-29T02:12:56.300Z,4.30
2022-07-29T02:15:27.889Z,4.20
2022-07-29T02:18:00.450Z,4.95
2022-07-29T02:20:29.968Z,4.55
2022-07-29T02:23:00.372Z,4.50
2022-07-29T02:25:36.937Z,4.22
2022-07-29T02:28:08.789Z,5.03
2022-07-29T02:30:42.024Z,4.47
2022-07-29T02:33:12.507Z,4.55
2022-07-29T02:35:42.822Z,4.25
2022-07-29T02:38:31.471Z,4.30
2022-07-29T02:41:02.374Z,3.67
2022-07-29T02:43:32.712Z,3.80
2022-07-29T02:46:05.951Z,3.33
2022-07-29T02:48:46.300Z,3.70
2022-07-29T02:51:43.419Z,3.78
2022-07-29T02:54:11.603Z,3.40
2022-07-29T02:56:42.727Z,3.25
2022-07-29T02:59:13.683Z,3.15
2022-07-29T03:01:47.959Z,2.85
2022-07-29T03:04:18.347Z,2.60
2022-07-29T03:06:47.808Z,3.00
2022-07-29T03:09:17.051Z,3.08
2022-07-29T03:11:49.915Z,2.70
2022-07-29T03:14:21.206Z,2.57
2022-07-29T03:16:52.688Z,2.60
2022-07-29T03:19:22.624Z,2.30
2022-07-29T03:21:50.985Z,2.60
2022-07-29T03:24:37.890Z,2.42
2022-07-29T03:27:06.916Z,2.38
2022-07-29T03:29:35.813Z,2.42
2022-07-29T03:32:08.648Z,2.17
2022-07-29T03:34:38.801Z,2.60
2022-07-29T03:37:08.029Z,2.70
2022-07-29T03:39:40.879Z,2.58
2022-07-29T03:42:12.575Z,3.55
2022-07-29T03:44:42.731Z,2.20
2022-07-29T03:47:16.047Z,2.70
2022-07-29T03:49:46.705Z,3.13
2022-07-29T03:52:15.717Z,2.97
2022-07-29T03:54:44.193Z,2.90
2022-07-29T03:57:14.002Z,3.10
2022-07-29T03:59:43.821Z,3.20
2022-07-29T04:02:14.929Z,3.03
2022-07-29T04:04:45.982Z,3.60
2022-07-29T04:07:15.152Z,3.75
2022-07-29T04:09:43.765Z,3.63
2022-07-29T04:12:12.581Z,3.50
2022-07-29T04:14:41.767Z,4.03
2022-07-29T04:17:10.035Z,4.00
2022-07-29T04:19:39.741Z,3.90
2022-07-29T04:22:08.111Z,4.05
2022-07-29T04:24:37.213Z,4.43
2022-07-29T04:27:05.562Z,4.30
2022-07-29T04:29:33.901Z,4.90
2022-07-29T04:32:02.179Z,5.20
2022-07-29T04:34:30.428Z,5.03
2022-07-29T04:37:00.185Z,6.63
2022-07-29T04:39:29.642Z,6.43
2022-07-29T04:41:59.058Z,6.32
2022-07-29T04:44:29.022Z,6.15
2022-07-29T04:46:58.330Z,6.22
2022-07-29T04:49:27.211Z,6.05
2022-07-29T04:51:55.929Z,5.82
2022-07-29T04:54:25.757Z,6.15
2022-07-29T04:56:54.714Z,6.10
2022-07-29T04:59:23.016Z,6.00
2022-07-29T05:01:51.399Z,5.80
2022-07-29T05:04:20.433Z,5.80
2022-07-29T05:06:49.340Z,6.10
2022-07-29T05:09:17.630Z,5.90
2022-07-29T05:11:47.266Z,5.97
2022-07-29T05:14:16.007Z,5.72
2022-07-29T05:16:44.562Z,6.80
2022-07-29T05:19:14.657Z,6.55
2022-07-29T05:21:43.548Z,6.47
2022-07-29T05:24:12.729Z,6.60
2022-07-29T05:26:41.615Z,6.10
2022-07-29T05:29:41.166Z,6.45
2022-07-29T05:32:00.472Z,6.65
2022-07-29T05:34:28.830Z,6.50
2022-07-29T05:36:57.500Z,6.30
2022-07-29T05:39:47.019Z,6.10
2022-07-29T05:42:14.211Z,5.85
2022-07-29T05:44:43.832Z,6.20
2022-07-29T05:47:12.602Z,5.43
2022-07-29T05:49:40.898Z,5.38
2022-07-29T05:52:09.950Z,5.40
2022-07-29T05:54:38.393Z,5.20
2022-07-29T05:57:07.830Z,5.03
2022-07-29T05:59:39.748Z,5.00
2022-07-29T06:02:09.713Z,5.03
2022-07-29T06:04:37.941Z,4.85
2022-07-29T06:07:06.355Z,4.30
2022-07-29T06:09:36.358Z,4.00
2022-07-29T06:12:05.390Z,3.33
2022-07-29T06:14:33.768Z,3.15
2022-07-29T06:17:01.977Z,3.55
2022-07-29T06:19:31.686Z,3.03
2022-07-29T06:21:59.959Z,3.10
2022-07-29T06:24:28.312Z,2.75
2022-07-29T06:26:57.006Z,2.80
2022-07-29T06:29:25.617Z,2.60
2022-07-29T06:31:53.929Z,2.70
2022-07-29T06:34:22.133Z,2.83
2022-07-29T06:36:53.735Z,2.63
2022-07-29T06:39:22.521Z,2.60
2022-07-29T06:41:51.527Z,2.30
2022-07-29T06:44:20.547Z,2.50
2022-07-29T06:46:50.255Z,2.80
2022-07-29T06:49:18.603Z,2.90
2022-07-29T06:51:47.571Z,2.63
2022-07-29T06:54:17.528Z,2.70
2022-07-29T06:56:46.137Z,3.20
2022-07-29T06:59:15.450Z,4.03
2022-07-29T07:01:45.411Z,3.50
2022-07-29T07:04:14.794Z,3.10
2022-07-29T07:06:43.550Z,3.42
2022-07-29T07:09:11.865Z,3.33
2022-07-29T07:11:41.537Z,3.92
2022-07-29T07:14:09.757Z,3.13
2022-07-29T07:16:38.125Z,3.42
2022-07-29T07:19:06.501Z,3.10
2022-07-29T07:21:36.119Z,13.80
2022-07-29T07:24:04.451Z,2.90
2022-07-29T07:26:33.303Z,3.58
2022-07-29T07:29:02.925Z,3.40
2022-07-29T07:31:31.367Z,3.90
2022-07-29T07:34:00.113Z,3.50
2022-07-29T07:36:28.358Z,3.30
2022-07-29T07:38:56.703Z,3.15
2022-07-29T07:41:24.952Z,3.60
2022-07-29T07:43:53.225Z,4.38
2022-07-29T07:46:22.932Z,3.38
2022-07-29T07:48:51.366Z,3.55
2022-07-29T07:51:19.630Z,3.60
2022-07-29T07:53:50.556Z,3.60
2022-07-29T07:56:18.795Z,3.38
2022-07-29T07:58:47.105Z,3.10
2022-07-29T08:01:15.430Z,2.95
2022-07-29T08:03:45.070Z,2.80
2022-07-29T08:06:13.329Z,3.03
2022-07-29T08:08:41.645Z,2.50
2022-07-29T08:11:10.091Z,2.53
2022-07-29T08:13:39.721Z,2.40
2022-07-29T08:16:16.200Z,4.10
2022-07-29T08:18:47.297Z,2.40
2022-07-29T08:21:16.462Z,3.75
2022-07-29T08:23:59.577Z,5.55
2022-07-29T08:26:30.127Z,4.47
2022-07-29T08:28:58.432Z,3.42
2022-07-29T08:31:26.757Z,3.95
2022-07-29T08:33:57.302Z,3.50
2022-07-29T08:36:39.027Z,3.30
2022-07-29T08:39:07.537Z,3.42
2022-07-29T08:41:35.973Z,3.60
2022-07-29T08:44:04.411Z,4.00
2022-07-29T08:46:32.639Z,4.20
2022-07-29T08:49:02.407Z,3.90
2022-07-29T08:51:31.914Z,3.92
2022-07-29T08:54:02.613Z,3.88
2022-07-29T08:56:32.115Z,4.63
2022-07-29T08:59:01.268Z,4.70
2022-07-29T09:01:42.752Z,4.10
2022-07-29T09:04:15.906Z,4.20
2022-07-29T09:06:49.314Z,4.93
2022-07-29T09:09:20.804Z,3.92
2022-07-29T09:11:49.523Z,3.63
2022-07-29T09:14:17.760Z,4.70
2022-07-29T09:16:56.294Z,4.07
2022-07-29T09:19:31.167Z,4.68
2022-07-29T09:22:00.356Z,4.90
2022-07-29T09:24:46.292Z,4.22
2022-07-29T09:27:23.178Z,3.55
2022-07-29T09:30:01.844Z,2.90
2022-07-29T09:32:30.955Z,2.95
2022-07-29T09:35:20.586Z,2.72
2022-07-29T09:37:49.804Z,2.88
2022-07-29T09:40:20.584Z,2.75
2022-07-29T09:42:49.393Z,3.10
2022-07-29T09:45:30.655Z,2.70
2022-07-29T09:48:01.501Z,2.70
2022-07-29T09:50:42.171Z,2.88
2022-07-29T09:53:11.522Z,3.17
2022-07-29T09:55:50.809Z,3.50
2022-07-29T09:58:20.902Z,3.60
2022-07-29T10:00:50.732Z,3.50
2022-07-29T10:03:19.394Z,3.53
2022-07-29T10:06:05.995Z,3.50
2022-07-29T10:08:34.444Z,3.58
2022-07-29T10:11:13.036Z,3.50
2022-07-29T10:13:42.378Z,3.40
2022-07-29T10:16:11.350Z,3.60
2022-07-29T10:18:41.913Z,3.40
2022-07-29T10:21:22.664Z,3.60
2022-07-29T10:24:01.774Z,3.47
2022-07-29T10:26:31.514Z,4.68
2022-07-29T10:29:00.634Z,6.43
2022-07-29T10:31:37.196Z,4.15
2022-07-29T10:34:13.785Z,4.35
2022-07-29T10:36:54.429Z,4.10
2022-07-29T10:39:44.337Z,5.20
2022-07-29T10:45:09.359Z,4.20
2022-07-29T10:47:37.710Z,4.30
2022-07-29T10:50:11.674Z,4.00
2022-07-29T10:52:58.765Z,4.65
2022-07-29T10:55:37.610Z,4.60
2022-07-29T10:58:17.188Z,4.65
2022-07-29T11:00:46.955Z,4.80
2022-07-29T11:03:50.364Z,5.18
2022-07-29T11:06:26.162Z,4.57
2022-07-29T11:09:37.695Z,4.47
2022-07-29T11:12:47.858Z,4.72
2022-07-29T11:15:20.105Z,7.05
2022-07-29T11:21:00.747Z,5.95
2022-07-29T11:23:33.678Z,4.97
2022-07-29T11:26:23.394Z,5.22
2022-07-29T11:28:58.939Z,5.40
2022-07-29T11:31:42.478Z,5.30
2022-07-29T11:34:21.390Z,5.00
2022-07-29T11:37:27.910Z,4.88
2022-07-29T11:40:18.402Z,5.15
2022-07-29T11:42:53.008Z,5.18
2022-07-29T11:45:42.142Z,5.90
2022-07-29T11:48:27.901Z,5.40
2022-07-29T11:51:01.131Z,5.43
2022-07-29T11:53:32.954Z,5.75
2022-07-29T11:56:25.679Z,5.40
2022-07-29T11:59:05.398Z,5.30
2022-07-29T12:01:38.327Z,5.22
2022-07-29T12:04:07.893Z,4.47
2022-07-29T12:06:36.334Z,4.50
2022-07-29T12:09:14.383Z,4.82
2022-07-29T12:11:45.070Z,4.60
2022-07-29T12:14:31.009Z,4.60
2022-07-29T12:17:02.145Z,4.70
2022-07-29T12:19:30.381Z,4.80
2022-07-29T12:22:01.028Z,5.00
2022-07-29T12:24:45.115Z,4.80
2022-07-29T12:27:14.238Z,5.07
2022-07-29T12:29:46.293Z,4.90
2022-07-29T12:32:19.852Z,4.97
2022-07-29T12:34:48.656Z,5.20
2022-07-29T12:37:17.156Z,5.45
2022-07-29T12:39:46.394Z,5.70
2022-07-29T12:42:18.782Z,4.90
2022-07-29T12:44:48.634Z,5.10
2022-07-29T12:47:19.279Z,5.72
2022-07-29T12:49:47.792Z,5.95
2022-07-29T12:52:30.334Z,5.75
2022-07-29T12:54:58.975Z,5.90
2022-07-29T12:57:28.118Z,6.40
2022-07-29T13:00:06.125Z,6.80
2022-07-29T13:02:41.936Z,6.50
2022-07-29T13:05:11.376Z,6.50
2022-07-29T13:07:57.249Z,6.60
2022-07-29T13:10:27.021Z,6.97
2022-07-29T13:13:06.318Z,7.22
2022-07-29T13:15:35.200Z,7.60
2022-07-29T13:18:06.084Z,7.22
2022-07-29T13:20:34.721Z,6.88
2022-07-29T13:23:03.096Z,7.03
2022-07-29T13:25:33.098Z,6.80
2022-07-29T13:28:01.957Z,7.28
2022-07-29T13:30:30.401Z,7.68
2022-07-29T13:32:58.747Z,7.10
2022-07-29T13:35:30.732Z,7.57
2022-07-29T13:37:59.151Z,7.72
2022-07-29T13:40:27.591Z,7.60
2022-07-29T13:42:55.865Z,7.68
2022-07-29T13:45:24.239Z,7.90
2022-07-29T13:47:57.391Z,7.75
2022-07-29T13:50:27.240Z,7.47
2022-07-29T13:52:55.568Z,7.50
2022-07-29T13:55:23.826Z,7.30
2022-07-29T13:57:52.111Z,7.15
2022-07-29T14:00:20.989Z,7.18
2022-07-29T14:02:49.192Z,7.20
2022-07-29T14:05:17.648Z,7.82
2022-07-29T14:07:47.368Z,8.18
2022-07-29T14:10:19.966Z,7.38
2022-07-29T14:12:48.477Z,7.15
2022-07-29T14:15:16.814Z,7.75
2022-07-29T14:17:45.060Z,7.18
2022-07-29T14:20:13.323Z,7.70
2022-07-29T14:22:42.705Z,8.10
2022-07-29T14:25:15.690Z,7.70
2022-07-29T14:27:44.939Z,7.00
2022-07-29T14:30:14.054Z,7.13
2022-07-29T14:32:42.418Z,7.22
2022-07-29T14:35:10.998Z,7.10
2022-07-29T14:37:40.819Z,7.07
2022-07-29T14:40:11.364Z,7.50
2022-07-29T14:42:41.397Z,7.65
2022-07-29T14:45:11.032Z,7.60
2022-07-29T14:47:40.721Z,7.30
2022-07-29T14:50:09.835Z,7.03
2022-07-29T14:52:38.144Z,7.65
2022-07-29T14:55:16.281Z,7.68
2022-07-29T14:57:46.565Z,7.63
2022-07-29T15:00:15.459Z,8.05
2022-07-29T15:03:02.296Z,7.13
2022-07-29T15:05:31.287Z,7.40
2022-07-29T15:07:59.905Z,7.55
2022-07-29T15:10:28.314Z,7.22
2022-07-29T15:12:58.386Z,7.55
2022-07-29T15:15:27.070Z,7.80
2022-07-29T15:17:55.421Z,7.43
2022-07-29T15:20:26.268Z,7.25
2022-07-29T15:22:56.423Z,7.45
2022-07-29T15:25:24.761Z,7.55
2022-07-29T15:27:55.639Z,7.65
2022-07-29T15:30:32.981Z,7.50
2022-07-29T15:33:03.093Z,7.57
2022-07-29T15:35:31.477Z,7.10
2022-07-29T15:37:59.727Z,7.07
2022-07-29T15:40:28.074Z,6.72
2022-07-29T15:42:56.412Z,6.90
2022-07-29T15:45:24.816Z,7.32
2022-07-29T15:47:54.518Z,6.90
2022-07-29T15:50:22.886Z,7.22
2022-07-29T15:52:51.148Z,6.97
2022-07-29T15:55:19.424Z,7.50
2022-07-29T15:57:47.675Z,7.10
2022-07-29T16:00:17.600Z,7.03
2022-07-29T16:02:45.931Z,7.03
2022-07-29T16:05:15.761Z,7.00
2022-07-29T16:07:44.351Z,6.55
2022-07-29T16:10:12.636Z,7.00
2022-07-29T16:12:40.923Z,7.35
2022-07-29T16:15:10.977Z,6.85
2022-07-29T16:17:39.955Z,7.32
2022-07-29T16:20:09.337Z,7.20
2022-07-29T16:22:40.346Z,7.55
2022-07-29T16:25:09.535Z,7.53
2022-07-29T16:27:38.358Z,7.82
2022-07-29T16:30:09.764Z,7.55
2022-07-29T16:32:38.206Z,7.63
2022-07-29T16:35:07.408Z,7.30
2022-07-29T16:37:37.291Z,7.80
2022-07-29T16:40:11.526Z,7.28
2022-07-29T16:42:47.759Z,6.90
2022-07-29T16:45:18.021Z,7.00
2022-07-29T16:47:48.736Z,6.55
2022-07-29T16:50:18.065Z,7.13
2022-07-29T16:52:46.348Z,6.70
2022-07-29T16:55:18.619Z,7.00
2022-07-29T16:57:47.097Z,6.97
2022-07-29T17:00:17.438Z,6.70
2022-07-29T17:02:45.827Z,6.32
2022-07-29T17:05:14.221Z,6.68
2022-07-29T17:07:42.625Z,6.93
2022-07-29T17:10:12.362Z,7.30
2022-07-29T17:12:42.620Z,7.10
2022-07-29T17:15:13.581Z,7.00
2022-07-29T17:17:55.472Z,7.40
2022-07-29T17:20:26.702Z,9.52
2022-07-29T17:22:55.017Z,7.18
2022-07-29T17:25:24.905Z,7.68
2022-07-29T17:28:00.494Z,7.65
2022-07-29T17:30:29.470Z,7.13
2022-07-29T17:32:57.903Z,7.13
2022-07-29T17:35:43.616Z,7.00
2022-07-29T17:38:11.811Z,7.22
2022-07-29T17:40:40.185Z,7.20
2022-07-29T17:43:10.397Z,6.40
2022-07-29T17:45:49.574Z,7.30
2022-07-29T17:48:18.977Z,6.93
2022-07-29T17:50:48.116Z,6.70
2022-07-29T17:53:17.146Z,31.95
2022-07-29T17:55:46.223Z,7.00
2022-07-29T17:58:16.067Z,6.80
2022-07-29T18:00:44.609Z,7.32
2022-07-29T18:03:12.959Z,7.43
2022-07-29T18:05:41.477Z,7.00
2022-07-29T18:08:09.739Z,7.32
2022-07-29T18:10:38.654Z,7.30
2022-07-29T18:13:07.372Z,6.28
2022-07-29T18:15:36.964Z,6.57
2022-07-29T18:18:05.350Z,6.03
2022-07-29T18:20:33.792Z,5.70
2022-07-29T18:23:02.501Z,6.28
2022-07-29T18:25:30.840Z,6.28
2022-07-29T18:28:00.664Z,5.10
2022-07-29T18:30:29.984Z,5.10
2022-07-29T18:33:20.157Z,4.65
2022-07-29T18:35:49.440Z,4.90
2022-07-29T18:38:18.243Z,4.72
2022-07-29T18:40:47.192Z,5.47
2022-07-29T18:43:15.593Z,4.40
2022-07-29T18:45:43.873Z,4.30
2022-07-29T18:48:13.933Z,4.03
2022-07-29T18:50:42.780Z,4.65
2022-07-29T18:53:11.192Z,4.18
2022-07-29T18:55:41.062Z,4.82
2022-07-29T18:58:09.316Z,4.40
2022-07-29T19:00:37.534Z,4.00
2022-07-29T19:03:05.808Z,4.00
2022-07-29T19:05:35.737Z,4.07
2022-07-29T19:08:03.965Z,4.13
2022-07-29T19:10:32.251Z,4.28
2022-07-29T19:13:00.561Z,6.18
2022-07-29T19:15:29.217Z,3.72
2022-07-29T19:18:00.965Z,3.63
2022-07-29T19:20:30.039Z,3.88
2022-07-29T19:22:59.724Z,3.40
2022-07-29T19:25:28.008Z,3.33
2022-07-29T19:27:58.497Z,3.00
2022-07-29T19:30:28.392Z,3.10
2022-07-29T19:32:56.707Z,3.05
2022-07-29T19:35:32.306Z,3.60
2022-07-29T19:38:03.206Z,3.25
2022-07-29T19:40:31.731Z,2.80
2022-07-29T19:43:00.735Z,2.92
2022-07-29T19:45:29.176Z,2.90
2022-07-29T19:48:01.263Z,2.72
2022-07-29T19:50:30.371Z,2.60
2022-07-29T19:52:59.197Z,2.38
2022-07-29T19:55:29.095Z,2.50
2022-07-29T19:57:58.977Z,2.83
2022-07-29T20:00:28.462Z,4.78
2022-07-29T20:02:58.826Z,2.72
2022-07-29T20:05:28.490Z,2.30
2022-07-29T20:07:56.940Z,2.90
2022-07-29T20:10:25.508Z,2.60
2022-07-29T20:12:55.389Z,2.25
2022-07-29T20:15:23.969Z,2.38
2022-07-29T20:17:56.949Z,2.33
2022-07-29T20:20:29.930Z,2.60
2022-07-29T20:22:59.292Z,2.78
2022-07-29T20:25:27.663Z,2.30
2022-07-29T20:27:57.261Z,2.05
2022-07-29T20:30:26.091Z,2.28
2022-07-29T20:32:54.365Z,2.13
2022-07-29T20:35:23.291Z,2.30
2022-07-29T20:37:56.040Z,1.85
2022-07-29T20:40:25.345Z,1.92
2022-07-29T20:42:53.677Z,1.85
2022-07-29T20:45:23.608Z,2.58
2022-07-29T20:47:52.458Z,1.70
2022-07-29T20:50:23.431Z,1.60
2022-07-29T20:52:52.634Z,1.70
2022-07-29T20:55:21.007Z,2.13
2022-07-29T20:57:49.334Z,1.70
2022-07-29T21:00:17.935Z,1.70
2022-07-29T21:02:47.838Z,1.95
2022-07-29T21:05:16.703Z,1.85
2022-07-29T21:07:44.941Z,1.98
2022-07-29T21:10:14.323Z,2.00
2022-07-29T21:12:43.123Z,2.13
2022-07-29T21:15:13.662Z,2.60
2022-07-29T21:17:47.998Z,3.85
2022-07-29T21:20:19.554Z,2.00
2022-07-29T21:22:47.856Z,1.83
2022-07-29T21:25:16.133Z,1.70
2022-07-29T21:28:01.543Z,2.20
2022-07-29T21:30:29.846Z,2.17
2022-07-29T21:32:58.276Z,2.83
2022-07-29T21:35:45.297Z,2.47
2022-07-29T21:38:17.056Z,2.25
2022-07-29T21:40:45.817Z,2.17
2022-07-29T21:43:14.141Z,1.80
2022-07-29T21:45:43.848Z,2.58
2022-07-29T21:48:12.223Z,2.22
2022-07-29T21:50:41.937Z,2.03
2022-07-29T21:53:13.852Z,1.58
2022-07-29T21:55:44.642Z,1.95
2022-07-29T21:58:15.382Z,1.60
2022-07-29T22:00:44.412Z,2.13
2022-07-29T22:03:13.084Z,1.75
2022-07-29T22:05:42.716Z,2.13
2022-07-29T22:08:11.163Z,1.75
2022-07-29T22:10:39.421Z,2.42
2022-07-29T22:13:07.738Z,4.15
2022-07-29T22:15:36.330Z,2.30
2022-07-29T22:18:04.774Z,1.90
2022-07-29T22:20:33.045Z,1.75
2022-07-29T22:23:02.961Z,2.05
2022-07-29T22:25:31.240Z,4.78
2022-07-29T22:27:59.480Z,2.13
2022-07-29T22:30:27.858Z,1.67
2022-07-29T22:32:56.178Z,2.65
2022-07-29T22:35:24.503Z,1.88
2022-07-29T22:37:53.346Z,2.35
2022-07-29T22:40:23.088Z,2.00
2022-07-29T22:42:59.296Z,1.77
2022-07-29T22:45:27.630Z,2.50
2022-07-29T22:47:59.043Z,1.63
2022-07-29T22:50:27.790Z,2.28
2022-07-29T22:52:56.086Z,1.95
2022-07-29T22:55:25.796Z,1.70
2022-07-29T22:57:54.031Z,1.70
2022-07-29T23:00:22.411Z,2.92
2022-07-29T23:02:50.799Z,1.83
2022-07-29T23:05:19.195Z,2.17
2022-07-29T23:07:47.420Z,1.95
2022-07-29T23:10:15.701Z,1.95
2022-07-29T23:12:46.016Z,1.90
2022-07-29T23:15:14.621Z,1.60
2022-07-29T23:17:42.873Z,1.80
2022-07-29T23:20:11.721Z,1.90
2022-07-29T23:22:43.199Z,2.72
2022-07-29T23:25:11.831Z,2.10
2022-07-29T23:27:40.120Z,1.60
2022-07-29T23:30:10.921Z,2.25
2022-07-29T23:32:39.288Z,2.17
2022-07-29T23:35:09.176Z,3.10
2022-07-29T23:37:37.430Z,1.80
2022-07-29T23:40:10.854Z,1.67
2022-07-29T23:42:42.729Z,2.40
2022-07-29T23:45:13.965Z,2.10
2022-07-29T23:47:42.587Z,1.67
2022-07-29T23:50:13.215Z,1.90
2022-07-29T23:52:42.143Z,1.70
2022-07-29T23:55:38.872Z,1.95
2022-07-29T23:57:59.893Z,2.95
